Kota Cahaya — 9V9692 — position and weather

sailwx.info

Track history (hours):
 
Tides and Currents Weather Stations Pressure Air Temp Water Temp Dewpoint Dewpoint Depression Visibility Wind Speed Wind Dir Waves Ship Positions

Kota Cahaya

Last reported at 2018-Aug-05 20:00 UTC. Time now 2018-Aug-21 04:18 UTC.
Position N 48°00' E 172°48'.
Warning: this ship's position is 15 days out of date.

Length 301 m; draft 10.2 m.

Type: Cargo ship. MMSI: 566651000.

Wind from 050 at 12 knots

Barometer 1013.0 mb
Air temperature 11.0 ° C
Water temperature 9.5 ° C

Date/timePositionNaut miles runAvg speedWind from/ knotsBaromVisibWave heightAir tempDewpointWater temp
2018-Aug-05 20:00N 48°00' E 172°48'30312.6 050 / 121013.0 11.0 9.5
2018-Aug-04 20:00N 46°18' E 179°48'59112.1 180 / 251020.0 14.0 9.5
2018-Aug-02 19:00N 47°30' W 165°54'   270 / 201025.1 0.1 14.013.010.0
2018-Jul-27 18:52N 37°56' W 127°18'513.1
2018-Jul-27 18:30N 37°56' W 127°11'912.8
2018-Jul-27 17:50N 37°55' W 127°01'412.8
2018-Jul-27 17:30N 37°54' W 126°55'613.0
2018-Jul-27 17:00N 37°54' W 126°47'612.9
2018-Jul-27 16:30N 37°53' W 126°39'3912.8
2018-Jul-27 13:27N 37°49' W 125°50'612.6
2018-Jul-27 12:59N 37°48' W 125°42'612.6
2018-Jul-27 12:30N 37°47' W 125°35'1012.7
2018-Jul-27 11:44N 37°46' W 125°23'312.6
2018-Jul-27 11:30N 37°46' W 125°19'612.5
2018-Jul-27 11:00N 37°45' W 125°11'712.6
2018-Jul-27 10:26N 37°44' W 125°02'512.4
2018-Jul-27 10:00N 37°44' W 124°55'612.2
2018-Jul-27 09:30N 37°43' W 124°48'612.2
2018-Jul-27 09:00N 37°42' W 124°40'612.2
2018-Jul-27 08:30N 37°42' W 124°32'612.5
2018-Jul-27 08:00N 37°41' W 124°25'612.6
2018-Jul-27 07:30N 37°40' W 124°17'612.7
2018-Jul-27 07:00N 37°40' W 124°09'612.4
2018-Jul-27 06:30N 37°39' W 124°01'612.3
2018-Jul-27 06:00N 37°38' W 123°53'612.2
2018-Jul-27 05:30N 37°38' W 123°45'612.0
2018-Jul-27 05:00N 37°37' W 123°38'611.9
2018-Jul-27 04:30N 37°37' W 123°30'611.8
2018-Jul-27 04:00N 37°36' W 123°23'611.5
2018-Jul-27 03:30N 37°35' W 123°16'611.4
2018-Jul-27 03:00N 37°34' W 123°09'611.7
2018-Jul-27 02:30N 37°36' W 123°02'713.8
2018-Jul-27 02:01N 37°39' W 122°54'713.5
2018-Jul-27 01:30N 37°43' W 122°47'5 9.6
2018-Jul-27 01:01N 37°45' W 122°42'815.9
2018-Jul-27 00:31N 37°48' W 122°32'714.3
2018-Jul-27 00:01N 37°49' W 122°23'4 8.8
2018-Jul-26 23:31N 37°48' W 122°18'0 0.1
2018-Jul-26 23:00N 37°48' W 122°18'1 1.9
2018-Jul-26 22:30N 37°48' W 122°19'0 0.0
2018-Jul-26 22:00N 37°48' W 122°19'0 0.0
2018-Jul-26 21:30N 37°48' W 122°19'0 0.0
2018-Jul-26 21:00N 37°48' W 122°19'0 0.0
2018-Jul-26 20:30N 37°48' W 122°19'0 0.0
2018-Jul-26 20:00N 37°48' W 122°19'  
Track history (hours):
 
Tides and Currents Weather Stations Pressure Air Temp Water Temp Dewpoint Dewpoint Depression Visibility Wind Speed Wind Dir Waves Ship Positions

Kota Cahaya

Last reported at 2018-Aug-05 20:00 UTC. Time now 2018-Aug-21 04:18 UTC.
Position N 48°00' E 172°48'.
Warning: this ship's position is 15 days out of date.

Length 301 m; draft 10.2 m.

Type: Cargo ship. MMSI: 566651000.

Wind from 050 at 12 knots

Barometer 1013.0 mb
Air temperature 11.0 ° C
Water temperature 9.5 ° C

Date/timePositionNaut miles runAvg speedWind from/ knotsBaromVisibWave heightAir tempDewpointWater temp
2018-Aug-05 20:00N 48°00' E 172°48'30312.6 050 / 121013.0 11.0 9.5
2018-Aug-04 20:00N 46°18' E 179°48'59112.1 180 / 251020.0 14.0 9.5
2018-Aug-02 19:00N 47°30' W 165°54'   270 / 201025.1 0.1 14.013.010.0
2018-Jul-27 18:52N 37°56' W 127°18'513.1
2018-Jul-27 18:30N 37°56' W 127°11'912.8
2018-Jul-27 17:50N 37°55' W 127°01'412.8
2018-Jul-27 17:30N 37°54' W 126°55'613.0
2018-Jul-27 17:00N 37°54' W 126°47'612.9
2018-Jul-27 16:30N 37°53' W 126°39'3912.8
2018-Jul-27 13:27N 37°49' W 125°50'612.6
2018-Jul-27 12:59N 37°48' W 125°42'612.6
2018-Jul-27 12:30N 37°47' W 125°35'1012.7
2018-Jul-27 11:44N 37°46' W 125°23'312.6
2018-Jul-27 11:30N 37°46' W 125°19'612.5
2018-Jul-27 11:00N 37°45' W 125°11'712.6
2018-Jul-27 10:26N 37°44' W 125°02'512.4
2018-Jul-27 10:00N 37°44' W 124°55'612.2
2018-Jul-27 09:30N 37°43' W 124°48'612.2
2018-Jul-27 09:00N 37°42' W 124°40'612.2
2018-Jul-27 08:30N 37°42' W 124°32'612.5
2018-Jul-27 08:00N 37°41' W 124°25'612.6
2018-Jul-27 07:30N 37°40' W 124°17'612.7
2018-Jul-27 07:00N 37°40' W 124°09'612.4
2018-Jul-27 06:30N 37°39' W 124°01'612.3
2018-Jul-27 06:00N 37°38' W 123°53'612.2
2018-Jul-27 05:30N 37°38' W 123°45'612.0
2018-Jul-27 05:00N 37°37' W 123°38'611.9
2018-Jul-27 04:30N 37°37' W 123°30'611.8
2018-Jul-27 04:00N 37°36' W 123°23'611.5
2018-Jul-27 03:30N 37°35' W 123°16'611.4
2018-Jul-27 03:00N 37°34' W 123°09'611.7
2018-Jul-27 02:30N 37°36' W 123°02'713.8
2018-Jul-27 02:01N 37°39' W 122°54'713.5
2018-Jul-27 01:30N 37°43' W 122°47'5 9.6
2018-Jul-27 01:01N 37°45' W 122°42'815.9
2018-Jul-27 00:31N 37°48' W 122°32'714.3
2018-Jul-27 00:01N 37°49' W 122°23'4 8.8
2018-Jul-26 23:31N 37°48' W 122°18'0 0.1
2018-Jul-26 23:00N 37°48' W 122°18'1 1.9
2018-Jul-26 22:30N 37°48' W 122°19'0 0.0
2018-Jul-26 22:00N 37°48' W 122°19'0 0.0
2018-Jul-26 21:30N 37°48' W 122°19'0 0.0
2018-Jul-26 21:00N 37°48' W 122°19'0 0.0
2018-Jul-26 20:30N 37°48' W 122°19'0 0.0
2018-Jul-26 20:00N 37°48' W 122°19'  

Dump ship's entire track history